Home > Products > Valid Products > TAF

000
FTUS42 KKEY 041500 AAA
TAFEYW
TAF AMD
KEYW 041500Z 0415/0512 11012G18KT P6SM FEW020=



000
FTUS42 KKEY 041500 AAA
TAFMTH
TAF AMD
KMTH 041500Z 0415/0512 11009G18KT P6SM FEW020=



000
FTUS42 KKEY 041120
TAFEYW
TAF
KEYW 041120Z 0412/0512 11013G21KT P6SM FEW020=



000
FTUS42 KKEY 041120
TAFEYW
TAF
KEYW 041120Z 0412/0512 11013G21KT P6SM FEW020=



000
FTUS42 KKEY 041120
TAFMTH
TAF
KMTH 041120Z 0412/0512 11011G20KT P6SM FEW020=



000
FTUS42 KKEY 040910 AAA
TAFEYW
TAF AMD
KEYW 040910Z 0409/0506 11014G23KT P6SM FEW020=



000
FTUS42 KKEY 040910 AAA
TAFEYW
TAF AMD
KEYW 040910Z 0409/0506 11014G23KT P6SM FEW020=



000
FTUS42 KKEY 040910 AAA
TAFMTH
TAF AMD
KMTH 040910Z 0409/0506 10010G18KT P6SM FEW020=



000
FTUS42 KKEY 040910 AAA
TAFEYW
TAF AMD
KEYW 040910Z 0409/0506 11014G23KT P6SM FEW020=



000
FTUS42 KKEY 040910 AAA
TAFEYW
TAF AMD
KEYW 040910Z 0409/0506 11014G23KT P6SM FEW020=



000
FTUS42 KKEY 040910 AAA
TAFMTH
TAF AMD
KMTH 040910Z 0409/0506 10010G18KT P6SM FEW020=



000
FTUS42 KKEY 040523
TAFMTH
TAF
KMTH 040523Z 0406/0506 10011G19KT P6SM FEW020=



000
FTUS42 KKEY 040523
TAFEYW
TAF
KEYW 040523Z 0406/0506 11013G21KT P6SM FEW020=



000
FTUS42 KKEY 040523
TAFEYW
TAF
KEYW 040523Z 0406/0506 11013G21KT P6SM FEW020=



000
FTUS42 KKEY 040523
TAFEYW
TAF
KEYW 040523Z 0406/0506 11013G21KT P6SM FEW020=



000
FTUS42 KKEY 040523
TAFMTH
TAF
KMTH 040523Z 0406/0506 10011G19KT P6SM FEW020=



000
FTUS42 KKEY 040523
TAFEYW
TAF
KEYW 040523Z 0406/0506 11013G21KT P6SM FEW020=



000
FTUS42 KKEY 032337
TAFEYW
TAF
KEYW 032337Z 0400/0424 10013G21KT P6SM FEW020=



000
FTUS42 KKEY 032337
TAFEYW
TAF
KEYW 032337Z 0400/0424 10013G21KT P6SM FEW020=



000
FTUS42 KKEY 032337
TAFMTH
TAF
KMTH 032337Z 0400/0424 10012G19KT P6SM FEW020=



000
FTUS42 KKEY 032337
TAFMTH
TAF
KMTH 032337Z 0400/0424 10012G19KT P6SM FEW020=



000
FTUS42 KKEY 032337
TAFEYW
TAF
KEYW 032337Z 0400/0424 10013G21KT P6SM FEW020=



000
FTUS42 KKEY 032337
TAFEYW
TAF
KEYW 032337Z 0400/0424 10013G21KT P6SM FEW020=



000
FTUS42 KKEY 032320
TAFMTH
TAF
KMTH 032320Z 0400/0424 10012G19KT P6SM FEW020=



000
FTUS42 KKEY 032320
TAFEYW
TAF
KEYW 032320Z 0400/0424 10013G21KT P6SM FEW020=



000
FTUS42 KKEY 032320
TAFEYW
TAF
KEYW 032320Z 0400/0424 10013G21KT P6SM FEW020=



000
FTUS42 KKEY 032220 AAB
TAFEYW
TAF AMD
KEYW 032220Z 0322/0418 10013G21KT P6SM FEW020=



000
FTUS42 KKEY 032220 AAB
TAFEYW
TAF AMD
KEYW 032220Z 0322/0418 10013G21KT P6SM FEW020=



000
FTUS42 KKEY 032220 AAA
TAFMTH
TAF AMD
KMTH 032220Z 0322/0418 10012G19KT P6SM FEW020=



000
FTUS42 KKEY 031456 AAA
TAFEYW
TAF AMD
KEYW 031456Z 0315/0412 10013G21KT P6SM FEW020=



000
FTUS42 KKEY 031456 AAA
TAFEYW
TAF AMD
KEYW 031456Z 0315/0412 10013G21KT P6SM FEW020=



000
FTUS42 KKEY 031456 AAA
TAFEYW
TAF AMD
KEYW 031456Z 0315/0412 10013G21KT P6SM FEW020=



000
FTUS42 KKEY 031456 AAA
TAFEYW
TAF AMD
KEYW 031456Z 0315/0412 10013G21KT P6SM FEW020=



000
FTUS42 KKEY 031122
TAFEYW
TAF
KEYW 031122Z 0312/0412 08010KT P6SM SCT020
     FM031600 10013G21KT P6SM FEW020=



000
FTUS42 KKEY 031122
TAFMTH
TAF
KMTH 031122Z 0312/0412 10009KT P6SM SCT020
     FM031600 10012G19KT P6SM FEW020=



000
FTUS42 KKEY 031122
TAFEYW
TAF
KEYW 031122Z 0312/0412 08010KT P6SM SCT020
     FM031600 10013G21KT P6SM FEW020=



000
FTUS42 KKEY 030900 AAA
TAFMTH
TAF AMD
KMTH 030900Z 0309/0406 07008KT P6SM SCT020 SCT070
     FM031600 09010G17KT P6SM FEW020=



000
FTUS42 KKEY 030859 AAA
TAFEYW
TAF AMD
KEYW 030859Z 0309/0406 07009KT P6SM FEW020 SCT070
     FM031600 10012G18KT P6SM FEW020=



000
FTUS42 KKEY 030859 AAA
TAFEYW
TAF AMD
KEYW 030859Z 0309/0406 07009KT P6SM FEW020 SCT070
     FM031600 10012G18KT P6SM FEW020=



000
FTUS42 KKEY 030523
TAFMTH
TAF
KMTH 030523Z 0306/0406 07008KT P6SM FEW015 SCT070
     FM031600 09010G17KT P6SM FEW020=



000
FTUS42 KKEY 030523
TAFEYW
TAF
KEYW 030523Z 0306/0406 07009KT P6SM FEW015 SCT070
     FM031600 10012G18KT P6SM FEW020=



000
FTUS42 KKEY 030523
TAFEYW
TAF
KEYW 030523Z 0306/0406 07009KT P6SM FEW015 SCT070
     FM031600 10012G18KT P6SM FEW020=



000
FTUS42 KKEY 022330
TAFMTH
TAF
KMTH 022330Z 0300/0324 07008KT P6SM FEW018 SCT080
     FM031600 09010G17KT P6SM FEW020=



000
FTUS42 KKEY 022330
TAFEYW
TAF
KEYW 022330Z 0300/0324 08009KT P6SM FEW018 SCT080
     FM031600 10012G18KT P6SM FEW020=



000
FTUS42 KKEY 022330
TAFEYW
TAF
KEYW 022330Z 0300/0324 08009KT P6SM FEW018 SCT080
     FM031600 10012G18KT P6SM FEW020=



000
FTUS42 KKEY 021745
TAFMTH
TAF
KMTH 021745Z 0218/0318 08009KT P6SM FEW020=



000
FTUS42 KKEY 021745
TAFMTH
TAF
KMTH 021745Z 0218/0318 08009KT P6SM FEW020=



000
FTUS42 KKEY 021745
TAFEYW
TAF
KEYW 021745Z 0218/0318 08009KT P6SM FEW020=



000
FTUS42 KKEY 021745
TAFEYW
TAF
KEYW 021745Z 0218/0318 08009KT P6SM FEW020=



000
FTUS42 KKEY 021745
TAFEYW
TAF
KEYW 021745Z 0218/0318 08009KT P6SM FEW020=



000
FTUS42 KKEY 021745
TAFEYW
TAF
KEYW 021745Z 0218/0318 08009KT P6SM FEW020=



000
FTUS42 KKEY 021137
TAFEYW
TAF
KEYW 021137Z 0212/0312 07010G16KT P6SM FEW018
     FM021700 08010KT P6SM FEW025=



000
FTUS42 KKEY 021137
TAFMTH
TAF
KMTH 021137Z 0212/0312 07008KT P6SM FEW018
     FM021600 08009KT P6SM FEW025=



000
FTUS42 KKEY 021137
TAFEYW
TAF
KEYW 021137Z 0212/0312 07010G16KT P6SM FEW018
     FM021700 08010KT P6SM FEW025=



000
FTUS42 KKEY 021137
TAFEYW
TAF
KEYW 021137Z 0212/0312 07010G16KT P6SM FEW018
     FM021700 08010KT P6SM FEW025=



000
FTUS42 KKEY 021137
TAFEYW
TAF
KEYW 021137Z 0212/0312 07010G16KT P6SM FEW018
     FM021700 08010KT P6SM FEW025=



000
FTUS42 KKEY 021137
TAFMTH
TAF
KMTH 021137Z 0212/0312 07008KT P6SM FEW018
     FM021600 08009KT P6SM FEW025=



000
FTUS42 KKEY 020900 AAA
TAFEYW
TAF AMD
KEYW 020900Z 0209/0306 07010G16KT P6SM FEW018
     FM021700 08011KT P6SM FEW025=



000
FTUS42 KKEY 020900 AAA
TAFEYW
TAF AMD
KEYW 020900Z 0209/0306 07010G16KT P6SM FEW018
     FM021700 08011KT P6SM FEW025=



000
FTUS42 KKEY 020900 AAA
TAFMTH
TAF AMD
KMTH 020900Z 0209/0306 07008G15KT P6SM FEW018
     FM021600 08009KT P6SM FEW025=



000
FTUS42 KKEY 020900 AAA
TAFEYW
TAF AMD
KEYW 020900Z 0209/0306 07010G16KT P6SM FEW018
     FM021700 08011KT P6SM FEW025=



000
FTUS42 KKEY 020900 AAA
TAFEYW
TAF AMD
KEYW 020900Z 0209/0306 07010G16KT P6SM FEW018
     FM021700 08011KT P6SM FEW025=



000
FTUS42 KKEY 020900 AAA
TAFMTH
TAF AMD
KMTH 020900Z 0209/0306 07008G15KT P6SM FEW018
     FM021600 08009KT P6SM FEW025=



000
FTUS42 KKEY 020533
TAFEYW
TAF
KEYW 020533Z 0206/0306 07012G18KT P6SM FEW015
     FM021700 08011KT P6SM FEW025=



000
FTUS42 KKEY 020533
TAFMTH
TAF
KMTH 020533Z 0206/0306 08009G15KT P6SM VCSH FEW015 BKN040
     FM020730 06009G15KT P6SM FEW018 SCT050
     FM021600 08009KT P6SM FEW025=



000
FTUS42 KKEY 020533
TAFEYW
TAF
KEYW 020533Z 0206/0306 07012G18KT P6SM FEW015
     FM021700 08011KT P6SM FEW025=



000
FTUS42 KKEY 020533
TAFMTH
TAF
KMTH 020533Z 0206/0306 08009G15KT P6SM VCSH FEW015 BKN040
     FM020730 06009G15KT P6SM FEW018 SCT050
     FM021600 08009KT P6SM FEW025=



000
FTUS42 KKEY 020533
TAFEYW
TAF
KEYW 020533Z 0206/0306 07012G18KT P6SM FEW015
     FM021700 08011KT P6SM FEW025=



000
FTUS42 KKEY 020533
TAFEYW
TAF
KEYW 020533Z 0206/0306 07012G18KT P6SM FEW015
     FM021700 08011KT P6SM FEW025=



000
FTUS42 KKEY 020350 AAA
TAFMTH
TAF AMD
KMTH 020350Z 0204/0224 07009G15KT P6SM VCSH FEW018 SCT080
     FM020700 06009G15KT P6SM FEW018 SCT080
     FM021600 08009KT P6SM FEW025=



000
FTUS42 KKEY 012331
TAFEYW
TAF
KEYW 012331Z 0200/0224 08012G18KT P6SM FEW015
     FM021700 08011KT P6SM FEW025=



000
FTUS42 KKEY 012331
TAFMTH
TAF
KMTH 012331Z 0200/0224 08009G16KT P6SM FEW015
     FM021700 08010KT P6SM FEW025=



000
FTUS42 KKEY 012331
TAFEYW
TAF
KEYW 012331Z 0200/0224 08012G18KT P6SM FEW015
     FM021700 08011KT P6SM FEW025=



000
FTUS42 KKEY 012331
TAFEYW
TAF
KEYW 012331Z 0200/0224 08012G18KT P6SM FEW015
     FM021700 08011KT P6SM FEW025=



000
FTUS42 KKEY 011740
TAFMTH
TAF
KMTH 011740Z 0118/0218 10010G15KT P6SM FEW025
     FM020200 08010KT P6SM FEW015=



000
FTUS42 KKEY 011740
TAFEYW
TAF
KEYW 011740Z 0118/0218 10012G17KT P6SM FEW025
     FM020200 08010KT P6SM FEW015=



000
FTUS42 KKEY 011740
TAFEYW
TAF
KEYW 011740Z 0118/0218 10012G17KT P6SM FEW025
     FM020200 08010KT P6SM FEW015=



000
FTUS42 KKEY 011740
TAFEYW
TAF
KEYW 011740Z 0118/0218 10012G17KT P6SM FEW025
     FM020200 08010KT P6SM FEW015=



000
FTUS42 KKEY 011740
TAFMTH
TAF
KMTH 011740Z 0118/0218 10010G15KT P6SM FEW025
     FM020200 08010KT P6SM FEW015=



000
FTUS42 KKEY 011740
TAFEYW
TAF
KEYW 011740Z 0118/0218 10012G17KT P6SM FEW025
     FM020200 08010KT P6SM FEW015=



    US Dept of Commerce
    National Oceanic and Atmospheric Administration
    National Weather Service
    1325 East West Highway
    Silver Spring, MD 20910
    Page Author: NWS Internet Services Team
Disclaimer
Information Quality
Credits
Glossary
Privacy Policy
Freedom of Information Act (FOIA)
About Us
Career Opportunities